Terminal Aerodrome Forecast
Issued by NWS

Home | Current Version | Previous Version | Text Only | Print | Product List | Glossary Off
Versions: 1 2 3 4 5 6 7 8 9 10 11 12 13 14 15 16 17

000
FTUS43 KTOP 281100
TAFFOE
TAF
KFOE 281120Z 2812/2912 18010KT P6SM FEW250
     FM281700 20016G25KT P6SM SCT250
     FM282300 24011KT P6SM FEW250
     FM290430 32016G23KT P6SM FEW250
     FM290900 33019G28KT P6SM BKN023=

USA.gov is the U.S. government's official web portal to all federal, state and local government web resources and services.